sensor_id;sensor_type;location;lat;lon;timestamp;P1;P2;P0
47711;PMS7003;57457;51.634;5.886;2023-08-24T00:05:46;5.53;7.97;6.0
47711;PMS7003;57457;51.634;5.886;2023-08-24T00:19:06;7.09;7.86;5.46
47711;PMS7003;57457;51.634;5.886;2023-08-24T00:32:26;4.69;7.2;5.46
47711;PMS7003;57457;51.634;5.886;2023-08-24T00:45:45;5.53;8.08;5.46
47711;PMS7003;57457;51.634;5.886;2023-08-24T00:59:05;6.37;8.84;5.79
47711;PMS7003;57457;51.634;5.886;2023-08-24T01:12:24;6.01;7.97;5.9
47711;PMS7003;57457;51.634;5.886;2023-08-24T01:25:44;6.85;9.38;6.55
47711;PMS7003;57457;51.634;5.886;2023-08-24T01:39:04;7.69;8.29;6.11
47711;PMS7003;57457;51.634;5.886;2023-08-24T01:52:23;7.57;9.38;6.33
47711;PMS7003;57457;51.634;5.886;2023-08-24T02:05:43;7.21;9.71;6.99
47711;PMS7003;57457;51.634;5.886;2023-08-24T02:19:03;8.29;8.95;6.44
47711;PMS7003;57457;51.634;5.886;2023-08-24T02:32:22;8.41;9.82;6.88
47711;PMS7003;57457;51.634;5.886;2023-08-24T02:45:42;8.05;10.47;7.42
47711;PMS7003;57457;51.634;5.886;2023-08-24T02:59:01;8.89;10.15;6.88
47711;PMS7003;57457;51.634;5.886;2023-08-24T03:12:21;14.17;14.51;9.93
47711;PMS7003;57457;51.634;5.886;2023-08-24T03:25:41;11.89;13.31;9.38
47711;PMS7003;57457;51.634;5.886;2023-08-24T03:39:00;18.49;17.89;12.54
47711;PMS7003;57457;51.634;5.886;2023-08-24T03:52:20;24.01;19.63;13.74
47711;PMS7003;57457;51.634;5.886;2023-08-24T04:05:40;19.81;19.19;13.53
47711;PMS7003;57457;51.634;5.886;2023-08-24T04:18:59;22.09;19.63;13.63
47711;PMS7003;57457;51.634;5.886;2023-08-24T04:32:19;20.89;19.52;13.53
47711;PMS7003;57457;51.634;5.886;2023-08-24T04:45:38;20.89;20.07;13.74
47711;PMS7003;57457;51.634;5.886;2023-08-24T04:58:58;22.33;20.61;14.29
47711;PMS7003;57457;51.634;5.886;2023-08-24T05:12:18;24.37;20.94;14.29
47711;PMS7003;57457;51.634;5.886;2023-08-24T05:25:37;23.53;21.26;15.05
47711;PMS7003;57457;51.634;5.886;2023-08-24T05:38:57;27.25;22.25;15.49
47711;PMS7003;57457;51.634;5.886;2023-08-24T05:52:17;26.29;22.79;15.71
47711;PMS7003;57457;51.634;5.886;2023-08-24T06:05:36;31.57;25.62;17.56
47711;PMS7003;57457;51.634;5.886;2023-08-24T06:18:56;32.29;27.37;18.65
47711;PMS7003;57457;51.634;5.886;2023-08-24T06:32:16;28.69;24.86;17.56
47711;PMS7003;57457;51.634;5.886;2023-08-24T06:45:35;32.17;26.17;18.54
47711;PMS7003;57457;51.634;5.886;2023-08-24T07:12:14;29.89;23.66;16.36
47711;PMS7003;57457;51.634;5.886;2023-08-24T07:25:34;25.93;23.12;15.81
47711;PMS7003;57457;51.634;5.886;2023-08-24T07:38:54;25.09;20.94;14.94
47711;PMS7003;57457;51.634;5.886;2023-08-24T07:52:13;21.73;20.07;14.07
47711;PMS7003;57457;51.634;5.886;2023-08-24T08:05:33;18.61;18.43;13.2
47711;PMS7003;57457;51.634;5.886;2023-08-24T08:18:53;17.41;17.99;12.87
47711;PMS7003;57457;51.634;5.886;2023-08-24T08:45:32;14.65;16.14;11.67
47711;PMS7003;57457;51.634;5.886;2023-08-24T08:58:51;14.41;16.03;11.45
47711;PMS7003;57457;51.634;5.886;2023-08-24T09:12:11;11.65;13.85;10.15
47711;PMS7003;57457;51.634;5.886;2023-08-24T09:25:31;13.09;14.07;10.69
47711;PMS7003;57457;51.634;5.886;2023-08-24T09:38:50;13.09;12.22;8.84
47711;PMS7003;57457;51.634;5.886;2023-08-24T09:52:10;10.33;10.91;8.4
47711;PMS7003;57457;51.634;5.886;2023-08-24T10:18:49;8.53;10.26;7.86
47711;PMS7003;57457;51.634;5.886;2023-08-24T10:32:09;9.85;10.47;7.42
47711;PMS7003;57457;51.634;5.886;2023-08-24T10:45:29;8.53;10.58;7.97
47711;PMS7003;57457;51.634;5.886;2023-08-24T10:58:48;7.81;8.4;6.44
47711;PMS7003;57457;51.634;5.886;2023-08-24T11:12:08;6.13;8.62;6.22
47711;PMS7003;57457;51.634;5.886;2023-08-24T11:25:27;6.97;8.62;6.22
47711;PMS7003;57457;51.634;5.886;2023-08-24T11:38:47;8.53;10.8;8.18
47711;PMS7003;57457;51.634;5.886;2023-08-24T11:52:07;9.73;11.89;9.17
47711;PMS7003;57457;51.634;5.886;2023-08-24T12:05:26;6.97;9.27;6.99
47711;PMS7003;57457;51.634;5.886;2023-08-24T12:18:46;5.65;8.29;5.9
47711;PMS7003;57457;51.634;5.886;2023-08-24T12:32:05;6.97;9.27;7.31
47711;PMS7003;57457;51.634;5.886;2023-08-24T12:45:25;12.37;11.67;8.84
47711;PMS7003;57457;51.634;5.886;2023-08-24T12:58:45;12.25;12.87;9.82
47711;PMS7003;57457;51.634;5.886;2023-08-24T13:12:04;9.97;11.78;8.95
47711;PMS7003;57457;51.634;5.886;2023-08-24T13:25:24;9.25;11.45;8.84
47711;PMS7003;57457;51.634;5.886;2023-08-24T13:38:44;6.25;8.73;6.66
47711;PMS7003;57457;51.634;5.886;2023-08-24T13:52:03;6.37;8.18;5.46
47711;PMS7003;57457;51.634;5.886;2023-08-24T14:05:23;4.69;7.42;5.24
47711;PMS7003;57457;51.634;5.886;2023-08-24T14:18:42;4.93;7.75;5.79
47711;PMS7003;57457;51.634;5.886;2023-08-24T14:32:02;11.53;9.38;6.44
47711;PMS7003;57457;51.634;5.886;2023-08-24T14:45:22;9.97;9.06;6.33
47711;PMS7003;57457;51.634;5.886;2023-08-24T14:58:41;7.33;9.17;6.66
47711;PMS7003;57457;51.634;5.886;2023-08-24T15:12:01;3.24;6.0;4.15
47711;PMS7003;57457;51.634;5.886;2023-08-24T15:25:20;3.36;6.0;4.48
47711;PMS7003;57457;51.634;5.886;2023-08-24T15:38:40;2.88;5.35;3.5
47711;PMS7003;57457;51.634;5.886;2023-08-24T15:52:00;3.0;6.0;4.04
47711;PMS7003;57457;51.634;5.886;2023-08-24T16:05:19;2.28;5.35;3.61
47711;PMS7003;57457;51.634;5.886;2023-08-24T16:18:39;1.56;4.59;3.17
47711;PMS7003;57457;51.634;5.886;2023-08-24T16:31:59;2.52;3.71;2.73
47711;PMS7003;57457;51.634;5.886;2023-08-24T16:45:18;0.36;3.39;2.41
47711;PMS7003;57457;51.634;5.886;2023-08-24T16:58:38;0.48;3.5;2.62
47711;PMS7003;57457;51.634;5.886;2023-08-24T17:11:58;0.48;3.39;2.41
47711;PMS7003;57457;51.634;5.886;2023-08-24T17:25:17;0.12;3.28;2.41
47711;PMS7003;57457;51.634;5.886;2023-08-24T17:38:37;0.36;3.5;2.3
47711;PMS7003;57457;51.634;5.886;2023-08-24T17:51:56;0.24;3.39;2.3
47711;PMS7003;57457;51.634;5.886;2023-08-24T18:05:16;0.36;3.5;2.41
47711;PMS7003;57457;51.634;5.886;2023-08-24T18:18:36;2.04;3.39;2.52
47711;PMS7003;57457;51.634;5.886;2023-08-24T18:31:55;1.08;4.04;2.73
47711;PMS7003;57457;51.634;5.886;2023-08-24T18:45:15;4.45;4.37;3.39
47711;PMS7003;57457;51.634;5.886;2023-08-24T19:11:54;4.57;7.31;5.46
47711;PMS7003;57457;51.634;5.886;2023-08-24T19:25:14;4.57;7.31;5.24
47711;PMS7003;57457;51.634;5.886;2023-08-24T19:38:33;5.77;6.88;5.24
47711;PMS7003;57457;51.634;5.886;2023-08-24T19:51:53;5.53;8.08;6.11
47711;PMS7003;57457;51.634;5.886;2023-08-24T20:05:13;10.81;8.95;6.55
47711;PMS7003;57457;51.634;5.886;2023-08-24T20:18:32;6.73;9.06;6.55
47711;PMS7003;57457;51.634;5.886;2023-08-24T20:31:52;11.29;10.47;8.08
47711;PMS7003;57457;51.634;5.886;2023-08-24T20:45:12;9.85;10.47;7.75
47711;PMS7003;57457;51.634;5.886;2023-08-24T20:58:31;9.73;11.78;8.73
47711;PMS7003;57457;51.634;5.886;2023-08-24T21:11:51;9.13;10.36;7.53
47711;PMS7003;57457;51.634;5.886;2023-08-24T21:25:11;7.93;9.93;7.53
47711;PMS7003;57457;51.634;5.886;2023-08-24T21:38:30;17.89;17.01;12.22
47711;PMS7003;57457;51.634;5.886;2023-08-24T21:51:50;19.21;17.12;12.11
47711;PMS7003;57457;51.634;5.886;2023-08-24T22:05:09;13.93;15.81;11.45
47711;PMS7003;57457;51.634;5.886;2023-08-24T22:18:29;15.13;14.94;10.8
47711;PMS7003;57457;51.634;5.886;2023-08-24T22:31:49;13.21;13.09;9.49
47711;PMS7003;57457;51.634;5.886;2023-08-24T22:45:08;10.57;11.78;8.51
47711;PMS7003;57457;51.634;5.886;2023-08-24T22:58:28;9.13;11.13;8.29
47711;PMS7003;57457;51.634;5.886;2023-08-24T23:11:48;9.73;12.11;8.84
47711;PMS7003;57457;51.634;5.886;2023-08-24T23:25:07;12.01;14.07;9.82
47711;PMS7003;57457;51.634;5.886;2023-08-24T23:38:27;12.85;14.07;9.93
47711;PMS7003;57457;51.634;5.886;2023-08-24T23:51:46;12.85;14.07;10.69
